Latest Weather Observations for Hartz Mountains

IDT60801

Issued at 6:31 am EDT Monday 18 November 2019 (issued every 10 minutes, with the page automatically refreshed every 10 minutes)

About weather observations | Map of weather stations | Latest weather observations for TAS | Other Formats
Station Details ID: 094191 Name: HARTZ MOUNTAIN (KEOGHS PIMPLE) Lat: -43.20 Lon: 146.77 Height: 831.0 m
Data from the previous 72 hours. | See also: Recent months at Hartz Mountains
Date/Time
EDT
Temp
°C
App
Temp
°C
Dew
Point
°C
Rel
Hum
%
Delta-T
°C
Wind Press
QNH
hPa
Press
MSL
hPa
Rain since
9am
mm
Dir  Spd
km/h
Gust
km/h
Spd
kts
Gust
kts
18/06:30am 4.1 -5.6 3.8 98 0.1 W 44 70 24 38 - - 0.0
18/06:00am 3.9 -6.2 3.6 98 0.1 W 46 82 25 44 - - 0.0
18/05:47am 3.9 -5.9 3.6 98 0.1 W 44 93 24 50 - - 0.0
18/05:30am 3.8 -5.4 3.4 97 0.2 W 41 63 22 34 - - 0.0
18/05:00am 3.6 -6.1 3.0 96 0.3 W 43 70 23 38 - - 0.0
18/04:30am 3.5 -5.8 2.9 96 0.3 W 41 78 22 42 - - 0.0
18/04:00am 3.5 -5.4 2.8 95 0.3 W 39 61 21 33 - - 0.0
18/03:30am 3.4 -5.6 2.7 95 0.3 W 39 63 21 34 - - 0.0
18/03:27am 3.4 -4.8 2.7 95 0.3 W 35 54 19 29 - - 0.0
18/03:00am 3.2 -5.1 2.3 94 0.4 WNW 35 48 19 26 - - 0.0
18/02:30am 3.2 -6.8 2.2 93 0.4 W 44 69 24 37 - - 0.0
18/02:02am 3.1 -5.2 2.1 93 0.4 WNW 35 54 19 29 - - 0.0
18/02:00am 3.1 -6.0 2.1 93 0.4 WNW 39 54 21 29 - - 0.0
18/01:46am 3.0 -6.5 2.0 93 0.4 WNW 41 63 22 34 - - 0.0
18/01:30am 3.0 -5.7 2.0 93 0.4 WNW 37 52 20 28 - - 0.0
18/01:00am 3.0 -6.9 1.7 91 0.5 WNW 43 61 23 33 - - 0.0
18/12:38am 3.1 -5.3 1.5 89 0.7 WNW 35 57 19 31 - - 0.0
18/12:30am 3.1 -5.4 1.2 87 0.8 WNW 35 50 19 27 - - 0.0
18/12:13am 3.1 -5.7 1.2 87 0.8 WNW 37 56 20 30 - - 0.0
18/12:00am 3.1 -7.1 1.2 87 0.8 W 44 61 24 33 - - 0.0
 
Date/Time
EDT
Temp
°C
App
Temp
°C
Dew
Point
°C
Rel
Hum
%
Delta-T
°C
Wind Press
QNH
hPa
Press
MSL
hPa
Rain since
9am
mm
Dir  Spd
km/h
Gust
km/h
Spd
kts
Gust
kts
17/11:30pm 3.1 -7.5 1.0 86 0.8 W 46 69 25 37 - - 0.0
17/11:02pm 3.0 -6.6 1.2 88 0.7 WNW 41 65 22 35 - - 0.0
17/11:00pm 3.0 -6.6 1.2 88 0.7 WNW 41 57 22 31 - - 0.0
17/10:30pm 3.1 -6.5 1.2 87 0.8 WNW 41 59 22 32 - - 0.0
17/10:24pm 3.0 -6.2 1.2 88 0.7 WNW 39 59 21 32 - - 0.0
17/10:00pm 3.1 -6.9 1.0 86 0.8 WNW 43 57 23 31 - - 0.0
17/09:30pm 3.0 -7.0 0.9 86 0.8 WNW 43 63 23 34 - - 0.0
17/09:00pm 3.1 -7.5 0.7 84 1.0 WNW 46 72 25 39 - - 0.0
17/08:30pm 3.0 -6.3 0.7 85 0.9 WNW 39 57 21 31 - - 0.0
17/08:03pm 3.1 -5.1 0.5 83 1.0 W 33 57 18 31 - - 0.0
17/08:00pm 3.1 -5.8 0.8 85 0.9 W 37 52 20 28 - - 0.0
17/07:30pm 3.3 -6.8 0.5 82 1.1 W 43 61 23 33 - - 0.0
17/07:03pm 3.6 -5.3 1.0 83 1.1 W 37 56 20 30 - - 0.0
17/07:00pm 3.6 -5.7 0.8 82 1.1 W 39 56 21 30 - - 0.0
17/06:39pm 3.8 -5.1 0.7 80 1.3 W 37 56 20 30 - - 0.0
17/06:30pm 4.0 -5.7 0.7 79 1.3 W 41 56 22 30 - - 0.0
17/06:00pm 4.5 -5.6 0.6 76 1.6 W 43 61 23 33 - - 0.0
17/05:30pm 5.2 -4.8 0.8 73 1.8 W 43 63 23 34 - - 0.0
17/05:00pm 6.3 -2.4 2.0 74 1.8 W 37 56 20 30 - - 0.0
17/04:31pm 5.4 -3.8 1.1 74 1.8 W 39 59 21 32 - - 0.0
17/04:30pm 5.4 -3.4 1.3 75 1.7 W 37 54 20 29 - - 0.0
17/04:00pm 6.8 -1.0 2.7 75 1.8 WNW 33 57 18 31 - - 0.0
17/03:48pm 6.9 -1.1 1.6 69 2.3 W 33 65 18 35 - - 0.0
17/03:32pm 8.6 1.9 3.6 71 2.3 WNW 28 46 15 25 - - 0.0
17/03:30pm 8.0 0.6 1.6 64 2.8 WNW 30 46 16 25 - - 0.0
17/03:00pm 8.3 1.9 3.0 69 2.4 WSW 26 50 14 27 - - 0.0
17/02:36pm 6.3 -1.4 2.4 76 1.7 W 32 50 17 27 - - 0.0
17/02:30pm 6.3 -1.8 1.2 70 2.1 W 33 50 18 27 - - 0.0
17/02:00pm 5.4 -3.7 1.7 77 1.6 WSW 39 56 21 30 - - 0.0
17/01:30pm 5.9 -2.0 2.4 78 1.5 WSW 33 56 18 30 - - 0.0
17/01:00pm 5.6 -1.1 3.4 86 1.0 W 28 46 15 25 - - 0.0
17/12:30pm 4.8 -3.4 2.7 86 0.9 WSW 35 54 19 29 - - 0.0
17/12:17pm 5.1 -3.1 2.8 85 1.0 WSW 35 54 19 29 - - 0.0
17/12:00pm 3.3 -6.8 1.8 90 0.6 WSW 44 59 24 32 - - 0.0
17/11:50am 3.2 -5.9 1.9 91 0.5 WSW 39 69 21 37 - - 0.0
17/11:30am 3.9 -3.8 2.4 90 0.6 WSW 32 50 17 27 - - 0.0
17/11:01am 4.5 -3.8 2.2 85 1.0 WSW 35 54 19 29 - - 0.0
17/11:00am 4.2 -4.6 1.2 81 1.2 WSW 37 54 20 29 - - 0.0
17/10:41am 3.2 -7.0 0.8 84 1.0 WSW 44 63 24 34 - - 0.0
17/10:30am 2.9 -6.3 1.4 90 0.6 WSW 39 52 21 28 - - 0.0
17/10:05am 3.3 -6.2 1.5 88 0.7 WSW 41 59 22 32 - - 0.0
17/10:00am 3.1 -6.8 1.5 89 0.7 WSW 43 59 23 32 - - 0.0
17/09:30am 2.1 -8.2 0.6 90 0.6 WSW 44 65 24 35 - - 0.0
17/09:04am 1.4 -7.9 0.5 94 0.4 WSW 39 57 21 31 - - 0.0
17/09:00am 1.3 -8.8 0.6 95 0.3 WSW 43 54 23 29 - - 6.0
17/08:39am 1.0 -8.3 0.3 95 0.3 WSW 39 57 21 31 - - 6.0
17/08:30am 0.8 -9.9 0.1 95 0.3 WSW 46 59 25 32 - - 6.0
17/08:00am 0.5 -11.3 0.1 97 0.2 WSW 52 65 28 35 - - 6.0
17/07:30am 0.0 -10.2 -0.3 98 0.1 WSW 43 57 23 31 - - 6.0
17/07:00am 0.0 -10.2 -0.3 98 0.1 WSW 43 52 23 28 - - 5.2
17/06:30am -0.2 -10.4 -0.5 98 0.1 SW 43 52 23 28 - - 5.2
17/06:00am -0.6 -10.5 -0.7 99 0.0 WSW 41 54 22 29 - - 5.2
17/05:34am -0.3 -10.5 -0.4 99 0.0 WSW 43 67 23 36 - - 5.2
17/05:30am -0.2 -10.0 -0.3 99 0.0 WSW 41 56 22 30 - - 5.2
17/05:00am -0.4 -10.2 -0.5 99 0.0 WSW 41 57 22 31 - - 5.2
17/04:47am -0.3 -9.0 -0.4 99 0.0 SW 35 54 19 29 - - 5.2
17/04:30am -0.3 -10.1 -0.4 99 0.0 WSW 41 52 22 28 - - 5.0
17/04:11am -0.4 -10.6 -0.4 100 0.0 WSW 43 63 23 34 - - 5.0
17/04:00am -0.2 -10.0 -0.2 100 0.0 WSW 41 54 22 29 - - 5.0
17/03:30am -0.2 -7.9 -0.3 99 0.0 WSW 30 52 16 28 - - 5.0
17/03:00am -0.2 -10.6 -0.3 99 0.0 WSW 44 67 24 36 - - 5.0
17/02:30am -0.1 -9.1 -0.2 99 0.0 WSW 37 61 20 33 - - 5.0
17/02:10am 0.0 -7.3 -0.3 98 0.1 WSW 28 50 15 27 - - 5.0
17/02:00am 0.0 -7.0 -0.3 98 0.1 W 26 41 14 22 - - 5.0
17/01:56am 0.0 -8.1 -0.3 98 0.1 WSW 32 50 17 27 - - 5.0
17/01:30am 0.3 -8.0 -0.4 95 0.3 WSW 33 48 18 26 - - 5.0
17/01:00am 0.2 -8.9 -0.5 95 0.3 WSW 37 54 20 29 - - 5.0
17/12:30am 0.2 -8.8 -0.2 97 0.2 SW 37 56 20 30 - - 5.0
17/12:15am 0.5 -7.2 0.1 97 0.2 WSW 30 50 16 27 - - 5.0
17/12:00am 0.6 -5.9 0.0 96 0.2 WSW 24 43 13 23 - - 5.0
 
Date/Time
EDT
Temp
°C
App
Temp
°C
Dew
Point
°C
Rel
Hum
%
Delta-T
°C
Wind Press
QNH
hPa
Press
MSL
hPa
Rain since
9am
mm
Dir  Spd
km/h
Gust
km/h
Spd
kts
Gust
kts
16/11:30pm 0.7 -7.5 0.1 96 0.2 WSW 33 61 18 33 - - 5.0
16/11:14pm 0.7 -7.5 0.6 99 0.0 SW 33 54 18 29 - - 5.0
16/11:00pm 0.7 -8.3 0.4 98 0.1 SW 37 52 20 28 - - 4.8
16/10:35pm 0.9 -7.1 0.6 98 0.1 WSW 32 52 17 28 - - 4.6
16/10:30pm 0.8 -7.4 0.5 98 0.1 WSW 33 48 18 26 - - 4.6
16/10:01pm 0.9 -7.2 0.8 99 0.0 WSW 33 69 18 37 - - 4.6
16/10:00pm 0.9 -7.2 0.8 99 0.0 WSW 33 69 18 37 - - 4.6
16/09:30pm 1.3 -6.6 1.0 98 0.1 W 32 52 17 28 - - 3.8
16/09:00pm 1.4 -7.4 1.3 99 0.0 WSW 37 65 20 35 - - 3.6
16/08:30pm 1.0 -7.5 0.7 98 0.1 WSW 35 54 19 29 - - 3.4
16/08:02pm 1.0 -8.7 0.6 97 0.2 WSW 41 59 22 32 - - 3.2
16/08:00pm 1.0 -9.1 0.4 96 0.2 WSW 43 59 23 32 - - 3.2
16/07:30pm 1.7 -7.6 0.5 92 0.5 WSW 39 67 21 36 - - 3.2
16/07:00pm 2.7 -6.3 0.3 84 0.9 W 37 67 20 36 - - 3.2
16/06:30pm 2.9 -6.1 -0.2 80 1.2 W 37 70 20 38 - - 3.2
16/06:00pm 2.8 -7.4 -0.3 80 1.2 W 43 67 23 36 - - 3.2
16/05:30pm 2.8 -7.3 0.5 85 0.9 WSW 43 69 23 37 - - 2.8
16/05:26pm 2.8 -7.5 0.5 85 0.9 W 44 83 24 45 - - 2.8
16/05:20pm 2.7 -8.4 0.1 83 1.0 W 48 83 26 45 - - 2.8
16/05:00pm 3.6 -5.4 0.3 79 1.3 W 37 65 20 35 - - 2.8
16/04:30pm 4.5 -5.2 0.3 74 1.7 W 41 65 22 35 - - 2.8
16/04:00pm 4.7 -5.3 1.0 77 1.5 W 43 76 23 41 - - 2.8
16/03:30pm 3.3 -7.3 0.9 84 1.0 W 46 74 25 40 - - 2.8
16/03:22pm 3.3 -8.4 1.2 86 0.9 WSW 52 78 28 42 - - 2.8
16/03:03pm 2.7 -9.9 0.1 83 1.0 WSW 56 89 30 48 - - 2.8
16/03:00pm 3.1 -7.7 1.9 92 0.5 WSW 48 76 26 41 - - 2.8
16/02:30pm 4.3 -7.3 1.7 83 1.1 WSW 52 98 28 53 - - 2.8
16/02:08pm 2.4 -10.6 1.5 94 0.4 WSW 59 91 32 49 - - 2.8
16/02:02pm 1.7 -9.8 0.1 89 0.6 WSW 50 91 27 49 - - 2.8
16/02:00pm 2.4 -8.3 0.3 86 0.8 WSW 46 83 25 45 - - 2.8
16/01:30pm 3.1 -7.4 1.6 90 0.6 W 46 100 25 54 - - 2.8
16/01:27pm 3.5 -6.9 1.9 89 0.7 W 46 100 25 54 - - 2.8
16/01:26pm 3.7 -7.1 2.1 89 0.7 W 48 100 26 54 - - 2.8
16/01:00pm 4.3 -7.9 2.7 89 0.7 WSW 56 98 30 53 - - 2.8
16/12:51pm 3.7 -9.6 1.9 88 0.7 WSW 61 98 33 53 - - 2.8
16/12:30pm 2.9 -7.9 2.0 94 0.4 WSW 48 82 26 44 - - 2.8
16/12:00pm 3.2 -7.6 2.0 92 0.5 WSW 48 96 26 52 - - 2.8
16/11:42am 2.6 -9.4 1.4 92 0.5 WSW 54 100 29 54 - - 2.8
16/11:30am 2.3 -8.1 1.9 97 0.2 WSW 46 70 25 38 - - 2.8
16/11:00am 3.4 -6.4 2.5 94 0.4 WSW 43 72 23 39 - - 2.8
16/10:30am 1.6 -9.4 0.7 94 0.4 WSW 48 69 26 37 - - 2.6
16/10:00am 1.9 -7.3 1.5 97 0.2 WSW 39 65 21 35 - - 2.6
16/09:30am 1.0 -8.6 0.9 99 0.0 W 41 72 22 39 - - 1.6
16/09:00am 0.1 -8.2 -0.2 98 0.1 W 33 59 18 32 - - 6.6
16/08:30am 0.2 -7.9 -0.2 97 0.2 W 32 54 17 29 - - 6.2
16/08:29am 0.3 -8.0 -0.1 97 0.2 W 33 57 18 31 - - 6.0
16/08:14am 0.3 -9.1 -0.3 96 0.2 W 39 82 21 44 - - 5.8
16/08:00am 0.8 -8.1 0.5 98 0.1 W 37 63 20 34 - - 5.2
16/07:43am 0.4 -8.6 0.3 99 0.0 W 37 78 20 42 - - 4.2
16/07:32am 0.2 -7.1 0.1 99 0.0 W 28 54 15 29 - - 4.0
16/07:30am 0.2 -6.7 0.1 99 0.0 W 26 44 14 24 - - 4.0
16/07:00am 0.1 -8.0 -0.2 98 0.1 WSW 32 52 17 28 - - 3.8
16/06:30am 0.2 -7.5 -0.1 98 0.1 W 30 57 16 31 - - 3.8
16/06:00am 0.1 -9.3 0.0 99 0.0 W 39 70 21 38 - - 3.8
16/05:30am 0.0 -8.6 -0.1 99 0.0 W 35 63 19 34 - - 3.8
16/05:00am 0.0 -8.3 -0.3 98 0.1 WSW 33 63 18 34 - - 3.8
16/04:46am 0.0 -7.7 -0.3 98 0.1 WSW 30 52 16 28 - - 3.8
16/04:43am 0.0 -7.3 -0.3 98 0.1 W 28 50 15 27 - - 3.8
16/04:30am 0.2 -8.8 -0.1 98 0.1 WNW 37 65 20 35 - - 3.8
16/04:00am 0.2 -7.5 -0.2 97 0.2 W 30 59 16 32 - - 3.8
16/03:30am 0.3 -7.4 0.0 98 0.1 W 30 59 16 32 - - 3.6
16/03:00am 0.3 -8.3 0.2 99 0.0 W 35 63 19 34 - - 3.6
16/02:30am 0.1 -7.2 0.1 100 0.0 W 28 65 15 35 - - 3.6
16/02:00am 0.3 -8.7 0.3 100 0.0 W 37 59 20 32 - - 3.6
16/01:30am 0.0 -7.7 -0.1 99 0.0 W 30 50 16 27 - - 3.4
16/01:00am 0.3 -7.7 0.2 99 0.0 WNW 32 52 17 28 - - 3.4
16/12:30am 0.1 -8.2 0.0 99 0.0 W 33 54 18 29 - - 3.4
16/12:08am 0.2 -7.1 0.1 99 0.0 W 28 52 15 28 - - 3.4
16/12:00am 0.1 -7.6 0.0 99 0.0 WSW 30 50 16 27 - - 3.4
 
Date/Time
EDT
Temp
°C
App
Temp
°C
Dew
Point
°C
Rel
Hum
%
Delta-T
°C
Wind Press
QNH
hPa
Press
MSL
hPa
Rain since
9am
mm
Dir  Spd
km/h
Gust
km/h
Spd
kts
Gust
kts
15/11:30pm 0.1 -7.2 -0.2 98 0.1 WSW 28 41 15 22 - - 3.4
15/11:00pm 0.3 -7.0 0.0 98 0.1 W 28 48 15 26 - - 3.4
15/10:30pm 0.7 -6.6 0.1 96 0.2 W 28 56 15 30 - - 3.2
15/10:00pm 0.6 -7.4 0.2 97 0.2 WSW 32 52 17 28 - - 3.2
15/09:30pm 0.8 -8.6 0.1 95 0.3 WSW 39 61 21 33 - - 3.0
15/09:00pm 1.1 -6.9 0.7 97 0.2 WSW 32 50 17 27 - - 3.0
15/08:40pm 1.0 -6.2 0.7 98 0.1 W 28 57 15 31 - - 2.6
15/08:30pm 0.9 -5.2 0.6 98 0.1 W 22 50 12 27 - - 2.6
15/08:00pm 0.9 -7.3 0.3 96 0.2 W 33 56 18 30 - - 1.8
15/07:30pm 1.6 -6.0 0.7 94 0.4 W 30 48 16 26 - - 1.6
15/07:00pm 1.5 -8.6 0.6 94 0.4 WSW 43 70 23 38 - - 1.6
15/06:31pm 1.2 -8.1 0.5 95 0.3 W 39 61 21 33 - - 1.4
15/06:30pm 1.3 -7.6 0.6 95 0.3 W 37 54 20 29 - - 1.4
15/06:00pm 1.3 -9.8 0.0 91 0.5 WSW 48 74 26 40 - - 1.4
15/05:51pm 1.9 -7.0 0.7 92 0.5 WSW 37 74 20 40 - - 1.4
15/05:31pm 2.5 -4.6 1.3 92 0.5 WSW 28 46 15 25 - - 1.2
15/05:30pm 2.6 -4.8 1.6 93 0.4 WSW 30 54 16 29 - - 1.2
15/05:03pm 2.3 -6.9 1.0 91 0.5 W 39 74 21 40 - - 1.2
15/05:00pm 2.5 -7.1 1.3 92 0.5 W 41 74 22 40 - - 1.2
15/04:30pm 2.5 -6.3 1.6 94 0.4 W 37 61 20 33 - - 1.2
15/04:00pm 2.1 -5.9 1.5 96 0.2 WNW 33 56 18 30 - - 1.2
15/03:32pm 1.8 -5.4 0.8 93 0.4 WNW 28 48 15 26 - - 1.0
15/03:30pm 1.9 -4.9 0.9 93 0.4 W 26 52 14 28 - - 1.0
15/03:04pm 3.3 -3.0 1.5 88 0.7 W 24 56 13 30 - - 1.0
15/03:00pm 3.8 -2.3 2.9 94 0.4 W 24 43 13 23 - - 1.0
15/02:30pm 2.3 -5.7 1.7 96 0.2 W 33 56 18 30 - - 1.0
15/02:06pm 2.0 -5.0 1.7 98 0.1 W 28 54 15 29 - - 1.0
15/02:00pm 1.9 -4.8 1.6 98 0.1 W 26 56 14 30 - - 1.0
15/01:32pm 0.7 -7.3 0.3 97 0.2 WSW 32 59 17 32 - - 0.8
15/01:30pm 0.6 -8.0 0.2 97 0.2 WSW 35 59 19 32 - - 0.8
15/01:03pm 1.9 -8.2 0.1 88 0.7 WSW 43 74 23 40 - - 0.4
15/01:00pm 2.4 -6.6 0.1 85 0.9 WSW 37 74 20 40 - - 0.4
15/12:30pm 3.7 -5.9 1.1 83 1.1 W 41 76 22 41 - - 0.4
15/12:28pm 3.9 -4.8 2.1 88 0.8 W 37 67 20 36 - - 0.4
15/12:20pm 3.1 -5.6 1.8 91 0.5 WSW 37 69 20 37 - - 0.4
15/12:15pm 2.9 -5.5 1.6 91 0.5 WSW 35 69 19 37 - - 0.4
15/12:04pm 3.0 -4.9 2.1 94 0.4 W 33 72 18 39 - - 0.4
15/12:00pm 3.5 -4.3 2.9 96 0.3 W 33 72 18 39 - - 0.4
15/11:46am 2.3 -8.6 1.3 93 0.4 W 48 80 26 43 - - 0.4
15/11:43am 2.2 -8.4 0.7 90 0.6 WNW 46 80 25 43 - - 0.4
15/11:41am 2.5 -8.1 0.7 88 0.7 WNW 46 80 25 43 - - 0.4
15/11:30am 5.0 -3.5 3.2 88 0.8 W 37 69 20 37 - - 0.4
15/11:10am 3.8 -4.1 2.2 89 0.7 W 33 72 18 39 - - 0.4
15/11:00am 3.3 -3.3 2.3 93 0.4 W 26 54 14 29 - - 0.4
15/10:35am 2.4 -5.0 1.8 96 0.2 W 30 70 16 38 - - 0.4
15/10:30am 2.3 -4.0 1.7 96 0.2 W 24 54 13 29 - - 0.2
15/10:06am 2.5 -4.9 1.6 94 0.4 W 30 63 16 34 - - 0.2
15/10:00am 2.7 -4.3 1.8 94 0.4 W 28 50 15 27 - - 0.2
15/09:48am 2.7 -4.3 1.8 94 0.4 W 28 46 15 25 - - 0.0
15/09:30am 2.6 -4.1 1.7 94 0.4 W 26 57 14 31 - - 0.0
15/09:00am 2.7 -5.2 1.1 89 0.6 W 32 65 17 35 - - 2.6
15/08:36am 2.8 -4.4 1.0 88 0.7 W 28 54 15 29 - - 2.6
15/08:30am 3.1 -3.5 1.8 91 0.5 WSW 26 59 14 32 - - 2.6
15/08:00am 2.2 -7.9 0.3 87 0.7 W 43 76 23 41 - - 2.6
15/07:45am 2.7 -7.5 -0.1 82 1.1 W 43 93 23 50 - - 2.6
15/07:33am 2.5 -5.4 1.2 91 0.5 WSW 32 67 17 36 - - 2.6
15/07:30am 2.6 -4.4 1.7 94 0.4 WSW 28 46 15 25 - - 2.6
15/07:00am 1.9 -6.0 1.3 96 0.2 W 32 56 17 30 - - 2.6

Other formats

Comma delimited format used in spreadsheet applications
http://www.bom.gov.au/fwo/IDT60801/IDT60801.94977.axf

JavaScript Object Notation format (JSON) in row-major order
http://www.bom.gov.au/fwo/IDT60801/IDT60801.94977.json

Data quality

Most of these data are generated automatically and are frequently updated. Quality checks on data are not normally performed. It is possible for incorrect values to appear. Refer to information at About Latest Weather Observations and please check the disclaimer before using these data.